sensor_id;sensor_type;location;lat;lon;timestamp;pressure;altitude;pressure_sealevel;temperature;humidity
23229;BME280;11783;50.350;6.576;2023-01-31T00:00:25;97007.69;;;1.98;100.00
23229;BME280;11783;50.350;6.576;2023-01-31T00:02:53;97003.28;;;1.99;100.00
23229;BME280;11783;50.350;6.576;2023-01-31T00:05:18;97002.47;;;1.98;100.00
23229;BME280;11783;50.350;6.576;2023-01-31T00:07:44;97009.84;;;1.95;100.00
23229;BME280;11783;50.350;6.576;2023-01-31T00:10:10;97002.81;;;1.95;100.00
23229;BME280;11783;50.350;6.576;2023-01-31T00:12:39;97003.16;;;1.92;100.00
23229;BME280;11783;50.350;6.576;2023-01-31T00:15:04;97013.63;;;1.92;100.00
23229;BME280;11783;50.350;6.576;2023-01-31T00:17:30;97026.75;;;1.92;100.00
23229;BME280;11783;50.350;6.576;2023-01-31T00:19:57;97036.41;;;1.92;100.00
23229;BME280;11783;50.350;6.576;2023-01-31T00:22:25;97032.16;;;1.91;100.00
23229;BME280;11783;50.350;6.576;2023-01-31T00:24:53;97026.91;;;1.91;100.00
23229;BME280;11783;50.350;6.576;2023-01-31T00:27:18;97024.81;;;1.86;100.00
23229;BME280;11783;50.350;6.576;2023-01-31T00:29:44;97037.22;;;1.84;100.00
23229;BME280;11783;50.350;6.576;2023-01-31T00:32:09;97033.31;;;1.88;100.00
23229;BME280;11783;50.350;6.576;2023-01-31T00:34:34;97042.31;;;1.86;100.00
23229;BME280;11783;50.350;6.576;2023-01-31T00:37:00;97035.59;;;1.83;100.00
23229;BME280;11783;50.350;6.576;2023-01-31T00:39:27;97035.94;;;1.80;100.00
23229;BME280;11783;50.350;6.576;2023-01-31T00:41:53;97037.75;;;1.79;100.00
23229;BME280;11783;50.350;6.576;2023-01-31T00:44:18;97037.44;;;1.74;100.00
23229;BME280;11783;50.350;6.576;2023-01-31T00:46:43;97028.59;;;1.75;100.00
23229;BME280;11783;50.350;6.576;2023-01-31T00:49:11;97031.56;;;1.72;100.00
23229;BME280;11783;50.350;6.576;2023-01-31T00:51:37;97031.56;;;1.72;100.00
23229;BME280;11783;50.350;6.576;2023-01-31T00:54:02;97040.56;;;1.70;100.00
23229;BME280;11783;50.350;6.576;2023-01-31T00:56:27;97030.09;;;1.70;100.00
23229;BME280;11783;50.350;6.576;2023-01-31T00:58:53;97029.28;;;1.69;100.00
23229;BME280;11783;50.350;6.576;2023-01-31T01:01:25;97017.97;;;1.69;100.00
23229;BME280;11783;50.350;6.576;2023-01-31T01:03:51;97021.72;;;1.66;100.00
23229;BME280;11783;50.350;6.576;2023-01-31T01:06:17;97032.06;;;1.68;100.00
23229;BME280;11783;50.350;6.576;2023-01-31T01:08:43;97031.22;;;1.67;100.00
23229;BME280;11783;50.350;6.576;2023-01-31T01:11:12;97032.72;;;1.62;100.00
23229;BME280;11783;50.350;6.576;2023-01-31T01:13:38;97043.84;;;1.64;100.00
23229;BME280;11783;50.350;6.576;2023-01-31T01:16:05;97035.16;;;1.63;100.00
23229;BME280;11783;50.350;6.576;2023-01-31T01:18:31;97045.31;;;1.66;100.00
23229;BME280;11783;50.350;6.576;2023-01-31T01:21:07;97050.53;;;1.66;100.00
23229;BME280;11783;50.350;6.576;2023-01-31T01:23:36;97053.16;;;1.66;100.00
23229;BME280;11783;50.350;6.576;2023-01-31T01:26:02;97045.00;;;1.69;100.00
23229;BME280;11783;50.350;6.576;2023-01-31T01:28:27;97058.25;;;1.68;100.00
23229;BME280;11783;50.350;6.576;2023-01-31T01:30:53;97057.41;;;1.67;100.00
23229;BME280;11783;50.350;6.576;2023-01-31T01:33:18;97057.41;;;1.67;100.00
23229;BME280;11783;50.350;6.576;2023-01-31T01:35:43;97051.34;;;1.67;100.00
23229;BME280;11783;50.350;6.576;2023-01-31T01:38:09;97038.78;;;1.62;100.00
23229;BME280;11783;50.350;6.576;2023-01-31T01:40:36;97039.75;;;1.61;100.00
23229;BME280;11783;50.350;6.576;2023-01-31T01:43:02;97028.63;;;1.59;100.00
23229;BME280;11783;50.350;6.576;2023-01-31T01:45:28;97034.03;;;1.58;100.00
23229;BME280;11783;50.350;6.576;2023-01-31T01:48:00;97016.50;;;1.58;100.00
23229;BME280;11783;50.350;6.576;2023-01-31T01:50:43;97032.06;;;1.60;100.00
23229;BME280;11783;50.350;6.576;2023-01-31T01:53:16;97023.56;;;1.58;100.00
23229;BME280;11783;50.350;6.576;2023-01-31T01:55:46;97022.91;;;1.56;100.00
23229;BME280;11783;50.350;6.576;2023-01-31T02:00:46;97030.13;;;1.54;100.00
23229;BME280;11783;50.350;6.576;2023-01-31T02:03:12;97029.78;;;1.48;100.00
23229;BME280;11783;50.350;6.576;2023-01-31T02:05:47;97023.72;;;1.48;100.00
23229;BME280;11783;50.350;6.576;2023-01-31T02:08:16;97025.53;;;1.47;100.00
23229;BME280;11783;50.350;6.576;2023-01-31T02:10:49;97019.47;;;1.47;100.00
23229;BME280;11783;50.350;6.576;2023-01-31T02:13:16;97026.69;;;1.45;100.00
23229;BME280;11783;50.350;6.576;2023-01-31T02:15:42;97023.06;;;1.46;100.00
23229;BME280;11783;50.350;6.576;2023-01-31T02:18:11;97019.00;;;1.43;100.00
23229;BME280;11783;50.350;6.576;2023-01-31T02:21:00;97018.81;;;1.45;100.00
23229;BME280;11783;50.350;6.576;2023-01-31T02:44:15;96997.56;;;1.40;100.00
23229;BME280;11783;50.350;6.576;2023-01-31T02:49:20;97003.31;;;1.35;100.00
23229;BME280;11783;50.350;6.576;2023-01-31T02:54:44;97011.97;;;1.36;100.00
23229;BME280;11783;50.350;6.576;2023-01-31T02:57:31;97005.28;;;1.33;100.00
23229;BME280;11783;50.350;6.576;2023-01-31T03:00:04;97011.31;;;1.34;100.00
23229;BME280;11783;50.350;6.576;2023-01-31T03:02:30;97018.19;;;1.35;100.00
23229;BME280;11783;50.350;6.576;2023-01-31T03:04:59;97027.69;;;1.36;100.00
23229;BME280;11783;50.350;6.576;2023-01-31T03:07:26;97023.94;;;1.30;100.00
23229;BME280;11783;50.350;6.576;2023-01-31T03:12:31;97018.53;;;1.24;100.00
23229;BME280;11783;50.350;6.576;2023-01-31T03:15:18;97005.47;;;1.15;100.00
23229;BME280;11783;50.350;6.576;2023-01-31T03:17:59;97011.50;;;1.16;100.00
23229;BME280;11783;50.350;6.576;2023-01-31T03:20:31;97005.13;;;1.18;100.00
23229;BME280;11783;50.350;6.576;2023-01-31T03:23:09;97000.06;;;1.17;100.00
23229;BME280;11783;50.350;6.576;2023-01-31T03:25:42;97007.72;;;1.10;100.00
23229;BME280;11783;50.350;6.576;2023-01-31T03:28:12;96999.22;;;1.08;100.00
23229;BME280;11783;50.350;6.576;2023-01-31T03:31:03;97008.41;;;1.12;100.00
23229;BME280;11783;50.350;6.576;2023-01-31T03:33:31;97005.78;;;1.12;100.00
23229;BME280;11783;50.350;6.576;2023-01-31T03:38:36;96995.31;;;1.12;100.00
23229;BME280;11783;50.350;6.576;2023-01-31T03:41:11;96995.81;;;1.16;100.00
23229;BME280;11783;50.350;6.576;2023-01-31T03:46:28;96992.19;;;1.17;100.00
23229;BME280;11783;50.350;6.576;2023-01-31T03:48:56;96991.88;;;1.12;100.00
23229;BME280;11783;50.350;6.576;2023-01-31T03:51:26;96999.75;;;1.12;100.00
23229;BME280;11783;50.350;6.576;2023-01-31T03:54:04;96997.25;;;1.10;100.00
23229;BME280;11783;50.350;6.576;2023-01-31T03:56:40;96986.78;;;1.10;100.00
23229;BME280;11783;50.350;6.576;2023-01-31T03:59:11;96997.94;;;1.12;100.00
23229;BME280;11783;50.350;6.576;2023-01-31T04:01:42;97000.22;;;1.15;100.00
23229;BME280;11783;50.350;6.576;2023-01-31T04:04:17;97000.06;;;1.17;100.00
23229;BME280;11783;50.350;6.576;2023-01-31T04:06:44;96995.97;;;1.14;100.00
23229;BME280;11783;50.350;6.576;2023-01-31T04:09:12;96995.44;;;1.11;100.00
23229;BME280;11783;50.350;6.576;2023-01-31T04:11:42;96999.41;;;1.15;100.00
23229;BME280;11783;50.350;6.576;2023-01-31T04:14:10;96984.50;;;1.15;100.00
23229;BME280;11783;50.350;6.576;2023-01-31T04:16:36;96996.63;;;1.16;100.00
23229;BME280;11783;50.350;6.576;2023-01-31T04:25:14;96996.63;;;1.16;100.00
23229;BME280;11783;50.350;6.576;2023-01-31T04:27:41;96989.91;;;1.14;100.00
23229;BME280;11783;50.350;6.576;2023-01-31T04:30:07;96992.69;;;1.12;100.00
23229;BME280;11783;50.350;6.576;2023-01-31T04:32:33;97001.19;;;1.14;100.00
23229;BME280;11783;50.350;6.576;2023-01-31T04:34:58;97003.81;;;1.14;100.00
23229;BME280;11783;50.350;6.576;2023-01-31T04:37:25;96992.19;;;1.17;100.00
23229;BME280;11783;50.350;6.576;2023-01-31T04:39:53;96989.91;;;1.14;100.00
23229;BME280;11783;50.350;6.576;2023-01-31T04:42:20;96978.78;;;1.20;100.00
23229;BME280;11783;50.350;6.576;2023-01-31T04:44:50;96980.91;;;1.16;100.00
23229;BME280;11783;50.350;6.576;2023-01-31T04:47:19;96969.63;;;1.16;100.00
23229;BME280;11783;50.350;6.576;2023-01-31T04:49:47;96972.38;;;1.23;100.00
23229;BME280;11783;50.350;6.576;2023-01-31T04:52:12;96971.72;;;1.20;100.00
23229;BME280;11783;50.350;6.576;2023-01-31T04:54:38;96965.34;;;1.23;100.00
23229;BME280;11783;50.350;6.576;2023-01-31T04:57:06;96958.13;;;1.25;100.00
23229;BME280;11783;50.350;6.576;2023-01-31T04:59:33;96964.19;;;1.26;100.00
23229;BME280;11783;50.350;6.576;2023-01-31T05:02:02;96965.50;;;1.21;100.00
23229;BME280;11783;50.350;6.576;2023-01-31T05:04:30;96975.66;;;1.25;100.00
23229;BME280;11783;50.350;6.576;2023-01-31T05:06:59;96954.69;;;1.25;100.00
23229;BME280;11783;50.350;6.576;2023-01-31T05:09:24;96960.75;;;1.25;100.00
23229;BME280;11783;50.350;6.576;2023-01-31T05:11:51;96955.19;;;1.20;100.00
23229;BME280;11783;50.350;6.576;2023-01-31T05:14:20;96963.88;;;1.20;100.00
23229;BME280;11783;50.350;6.576;2023-01-31T05:16:48;96960.09;;;1.23;100.00
23229;BME280;11783;50.350;6.576;2023-01-31T05:19:14;96964.53;;;1.23;100.00
23229;BME280;11783;50.350;6.576;2023-01-31T05:21:40;96956.16;;;1.27;100.00
23229;BME280;11783;50.350;6.576;2023-01-31T05:24:27;96960.25;;;1.30;100.00
23229;BME280;11783;50.350;6.576;2023-01-31T05:26:54;96967.44;;;1.36;100.00
23229;BME280;11783;50.350;6.576;2023-01-31T05:29:24;96966.47;;;1.37;100.00
23229;BME280;11783;50.350;6.576;2023-01-31T05:31:51;96966.81;;;1.34;100.00
23229;BME280;11783;50.350;6.576;2023-01-31T05:34:17;96953.72;;;1.34;100.00
23229;BME280;11783;50.350;6.576;2023-01-31T05:36:42;96960.75;;;1.33;100.00
23229;BME280;11783;50.350;6.576;2023-01-31T05:39:08;96942.75;;;1.30;100.00
23229;BME280;11783;50.350;6.576;2023-01-31T05:41:36;96952.56;;;1.28;100.00
23229;BME280;11783;50.350;6.576;2023-01-31T05:44:04;96953.25;;;1.30;100.00
23229;BME280;11783;50.350;6.576;2023-01-31T05:46:30;96961.75;;;1.32;100.00
23229;BME280;11783;50.350;6.576;2023-01-31T05:48:55;96954.38;;;1.28;100.00
23229;BME280;11783;50.350;6.576;2023-01-31T05:51:24;96950.75;;;1.29;100.00
23229;BME280;11783;50.350;6.576;2023-01-31T05:53:52;96943.72;;;1.29;100.00
23229;BME280;11783;50.350;6.576;2023-01-31T05:56:21;96941.78;;;1.31;100.00
23229;BME280;11783;50.350;6.576;2023-01-31T05:58:48;96944.41;;;1.31;100.00
23229;BME280;11783;50.350;6.576;2023-01-31T06:01:21;96940.78;;;1.24;100.00
23229;BME280;11783;50.350;6.576;2023-01-31T06:03:50;96944.41;;;1.23;100.00
23229;BME280;11783;50.350;6.576;2023-01-31T06:06:18;96939.00;;;1.25;100.00
23229;BME280;11783;50.350;6.576;2023-01-31T06:08:43;96937.03;;;1.18;100.00
23229;BME280;11783;50.350;6.576;2023-01-31T06:11:10;96929.16;;;1.27;100.00
23229;BME280;11783;50.350;6.576;2023-01-31T06:13:40;96935.38;;;1.26;100.00
23229;BME280;11783;50.350;6.576;2023-01-31T06:16:13;96941.25;;;1.28;100.00
23229;BME280;11783;50.350;6.576;2023-01-31T06:18:38;96931.66;;;1.12;100.00
23229;BME280;11783;50.350;6.576;2023-01-31T06:21:04;96931.16;;;1.16;100.00
23229;BME280;11783;50.350;6.576;2023-01-31T06:23:29;96922.97;;;1.19;100.00
23229;BME280;11783;50.350;6.576;2023-01-31T06:25:58;96935.38;;;1.26;100.00
23229;BME280;11783;50.350;6.576;2023-01-31T06:28:24;96933.75;;;1.25;100.00
23229;BME280;11783;50.350;6.576;2023-01-31T06:30:52;96921.66;;;1.24;100.00
23229;BME280;11783;50.350;6.576;2023-01-31T06:33:18;96929.16;;;1.27;100.00
23229;BME280;11783;50.350;6.576;2023-01-31T06:35:43;96932.59;;;1.27;100.00
23229;BME280;11783;50.350;6.576;2023-01-31T06:38:11;96920.31;;;1.28;100.00
23229;BME280;11783;50.350;6.576;2023-01-31T06:40:44;96908.56;;;1.32;100.00
23229;BME280;11783;50.350;6.576;2023-01-31T06:43:10;96917.38;;;1.31;100.00
23229;BME280;11783;50.350;6.576;2023-01-31T06:45:44;96910.19;;;1.33;100.00
23229;BME280;11783;50.350;6.576;2023-01-31T06:48:11;96908.69;;;1.38;100.00
23229;BME280;11783;50.350;6.576;2023-01-31T06:50:36;96902.28;;;1.41;100.00
23229;BME280;11783;50.350;6.576;2023-01-31T06:53:02;96901.81;;;1.37;100.00
23229;BME280;11783;50.350;6.576;2023-01-31T06:55:30;96895.75;;;1.37;100.00
23229;BME280;11783;50.350;6.576;2023-01-31T06:57:56;96899.19;;;1.37;100.00
23229;BME280;11783;50.350;6.576;2023-01-31T07:00:21;96929.13;;;1.43;100.00
23229;BME280;11783;50.350;6.576;2023-01-31T07:02:49;96908.16;;;1.43;100.00
23229;BME280;11783;50.350;6.576;2023-01-31T07:05:18;96910.28;;;1.47;100.00
23229;BME280;11783;50.350;6.576;2023-01-31T07:07:45;96903.09;;;1.49;100.00
23229;BME280;11783;50.350;6.576;2023-01-31T07:10:11;96924.69;;;1.51;100.00
23229;BME280;11783;50.350;6.576;2023-01-31T07:12:38;96922.38;;;1.57;100.00
23229;BME280;11783;50.350;6.576;2023-01-31T07:15:04;96916.97;;;1.58;100.00
23229;BME280;11783;50.350;6.576;2023-01-31T07:17:32;96911.72;;;1.58;100.00
23229;BME280;11783;50.350;6.576;2023-01-31T07:19:58;96918.25;;;1.62;100.00
23229;BME280;11783;50.350;6.576;2023-01-31T07:22:26;96927.75;;;1.63;100.00
23229;BME280;11783;50.350;6.576;2023-01-31T07:24:55;96921.22;;;1.59;100.00
23229;BME280;11783;50.350;6.576;2023-01-31T07:27:20;96921.03;;;1.61;100.00
23229;BME280;11783;50.350;6.576;2023-01-31T07:29:46;96922.97;;;1.67;100.00
23229;BME280;11783;50.350;6.576;2023-01-31T07:32:11;96925.13;;;1.63;100.00
23229;BME280;11783;50.350;6.576;2023-01-31T07:34:37;96938.84;;;1.65;100.00
23229;BME280;11783;50.350;6.576;2023-01-31T07:37:08;96934.94;;;1.61;100.00
23229;BME280;11783;50.350;6.576;2023-01-31T07:39:35;96917.41;;;1.70;100.00
23229;BME280;11783;50.350;6.576;2023-01-31T07:42:01;96918.25;;;1.62;100.00
23229;BME280;11783;50.350;6.576;2023-01-31T07:44:26;96926.75;;;1.64;100.00
23229;BME280;11783;50.350;6.576;2023-01-31T07:46:51;96930.50;;;1.70;100.00
23229;BME280;11783;50.350;6.576;2023-01-31T07:49:21;96934.41;;;1.74;100.00
23229;BME280;11783;50.350;6.576;2023-01-31T07:51:47;96937.03;;;1.74;100.00
23229;BME280;11783;50.350;6.576;2023-01-31T07:54:12;96931.13;;;1.80;100.00
23229;BME280;11783;50.350;6.576;2023-01-31T07:56:38;96929.31;;;1.80;100.00
23229;BME280;11783;50.350;6.576;2023-01-31T07:59:06;96932.09;;;1.79;100.00
23229;BME280;11783;50.350;6.576;2023-01-31T08:01:31;96938.31;;;1.78;100.00
23229;BME280;11783;50.350;6.576;2023-01-31T08:04:18;96949.81;;;1.77;100.00
23229;BME280;11783;50.350;6.576;2023-01-31T08:06:46;96957.84;;;1.75;100.00
23229;BME280;11783;50.350;6.576;2023-01-31T08:09:12;96945.88;;;1.73;100.00
23229;BME280;11783;50.350;6.576;2023-01-31T08:11:38;96953.41;;;1.76;100.00
23229;BME280;11783;50.350;6.576;2023-01-31T08:14:05;96941.13;;;1.76;100.00
23229;BME280;11783;50.350;6.576;2023-01-31T08:16:33;96931.81;;;1.74;100.00
23229;BME280;11783;50.350;6.576;2023-01-31T08:18:58;96937.84;;;1.74;100.00
23229;BME280;11783;50.350;6.576;2023-01-31T08:21:26;96927.56;;;1.73;100.00
23229;BME280;11783;50.350;6.576;2023-01-31T08:23:52;96924.59;;;1.76;100.00
23229;BME280;11783;50.350;6.576;2023-01-31T08:26:20;96939.03;;;1.72;100.00
23229;BME280;11783;50.350;6.576;2023-01-31T08:28:48;96943.13;;;1.66;100.00
23229;BME280;11783;50.350;6.576;2023-01-31T08:31:17;96936.56;;;1.70;100.00
23229;BME280;11783;50.350;6.576;2023-01-31T08:33:43;96926.09;;;1.70;100.00
23229;BME280;11783;50.350;6.576;2023-01-31T08:36:16;96915.94;;;1.67;100.00
23229;BME280;11783;50.350;6.576;2023-01-31T08:38:41;96911.34;;;1.69;100.00
23229;BME280;11783;50.350;6.576;2023-01-31T08:41:11;96897.59;;;1.67;100.00
23229;BME280;11783;50.350;6.576;2023-01-31T08:43:39;96915.94;;;1.67;100.00
23229;BME280;11783;50.350;6.576;2023-01-31T08:46:07;96924.13;;;1.72;100.00
23229;BME280;11783;50.350;6.576;2023-01-31T08:48:33;96926.56;;;1.74;100.00
23229;BME280;11783;50.350;6.576;2023-01-31T08:51:03;96921.31;;;1.74;100.00
23229;BME280;11783;50.350;6.576;2023-01-31T08:53:29;96910.59;;;1.83;100.00
23229;BME280;11783;50.350;6.576;2023-01-31T08:56:01;96915.22;;;1.81;100.00
23229;BME280;11783;50.350;6.576;2023-01-31T08:58:30;96919.78;;;1.88;100.00
23229;BME280;11783;50.350;6.576;2023-01-31T09:01:02;96929.13;;;1.82;100.00
23229;BME280;11783;50.350;6.576;2023-01-31T09:03:28;96928.84;;;1.77;100.00
23229;BME280;11783;50.350;6.576;2023-01-31T09:05:56;96938.97;;;1.80;100.00
23229;BME280;11783;50.350;6.576;2023-01-31T09:08:28;96930.28;;;1.79;100.00
23229;BME280;11783;50.350;6.576;2023-01-31T09:10:55;96919.16;;;1.77;100.00
23229;BME280;11783;50.350;6.576;2023-01-31T09:13:27;96918.81;;;1.80;100.00
23229;BME280;11783;50.350;6.576;2023-01-31T09:15:57;96909.50;;;1.78;100.00
23229;BME280;11783;50.350;6.576;2023-01-31T09:18:29;96912.28;;;1.76;100.00
23229;BME280;11783;50.350;6.576;2023-01-31T09:21:05;96897.84;;;1.80;100.00
23229;BME280;11783;50.350;6.576;2023-01-31T09:23:32;96907.34;;;1.81;100.00
23229;BME280;11783;50.350;6.576;2023-01-31T09:25:58;96905.19;;;1.85;100.00
23229;BME280;11783;50.350;6.576;2023-01-31T09:28:26;96913.56;;;1.89;100.00
23229;BME280;11783;50.350;6.576;2023-01-31T09:30:54;96915.84;;;1.92;100.00
23229;BME280;11783;50.350;6.576;2023-01-31T09:33:21;96917.59;;;1.99;100.00
23229;BME280;11783;50.350;6.576;2023-01-31T09:35:57;96925.91;;;2.03;100.00
23229;BME280;11783;50.350;6.576;2023-01-31T09:38:23;96923.81;;;1.98;100.00
23229;BME280;11783;50.350;6.576;2023-01-31T09:40:52;96926.44;;;1.98;100.00
23229;BME280;11783;50.350;6.576;2023-01-31T09:43:32;96936.41;;;2.03;100.00
23229;BME280;11783;50.350;6.576;2023-01-31T09:46:01;96932.66;;;2.05;100.00
23229;BME280;11783;50.350;6.576;2023-01-31T09:48:31;96921.66;;;2.02;100.00
23229;BME280;11783;50.350;6.576;2023-01-31T09:50:59;96919.38;;;1.99;100.00
23229;BME280;11783;50.350;6.576;2023-01-31T09:53:30;96914.59;;;2.02;100.00
23229;BME280;11783;50.350;6.576;2023-01-31T09:56:11;96923.44;;;2.09;100.00
23229;BME280;11783;50.350;6.576;2023-01-31T10:04:32;96912.78;;;2.11;100.00
23229;BME280;11783;50.350;6.576;2023-01-31T10:07:16;96917.13;;;2.19;100.00
23229;BME280;11783;50.350;6.576;2023-01-31T10:09:53;96924.19;;;2.18;100.00
23229;BME280;11783;50.350;6.576;2023-01-31T10:15:15;96917.31;;;2.17;100.00
23229;BME280;11783;50.350;6.576;2023-01-31T10:17:51;96909.63;;;2.16;100.00
23229;BME280;11783;50.350;6.576;2023-01-31T10:20:38;96906.81;;;2.17;100.00
23229;BME280;11783;50.350;6.576;2023-01-31T10:23:19;96891.22;;;2.24;100.00
23229;BME280;11783;50.350;6.576;2023-01-31T10:25:50;96884.00;;;2.26;100.00
23229;BME280;11783;50.350;6.576;2023-01-31T10:28:21;96879.56;;;2.26;100.00
23229;BME280;11783;50.350;6.576;2023-01-31T10:31:36;96885.75;;;2.33;100.00
23229;BME280;11783;50.350;6.576;2023-01-31T10:33:46;96885.50;;;2.20;100.00
23229;BME280;11783;50.350;6.576;2023-01-31T10:36:31;96884.50;;;2.21;100.00
23229;BME280;11783;50.350;6.576;2023-01-31T10:39:14;96891.56;;;2.21;100.00
23229;BME280;11783;50.350;6.576;2023-01-31T10:44:23;96892.69;;;2.26;100.00
23229;BME280;11783;50.350;6.576;2023-01-31T10:46:51;96894.19;;;2.21;100.00
23229;BME280;11783;50.350;6.576;2023-01-31T10:49:25;96887.63;;;2.25;100.00
23229;BME280;11783;50.350;6.576;2023-01-31T10:52:11;96867.63;;;2.24;100.00
23229;BME280;11783;50.350;6.576;2023-01-31T10:54:52;96870.06;;;2.25;100.00
23229;BME280;11783;50.350;6.576;2023-01-31T10:57:20;96859.75;;;2.24;100.00
23229;BME280;11783;50.350;6.576;2023-01-31T10:59:46;96873.34;;;2.27;100.00
23229;BME280;11783;50.350;6.576;2023-01-31T11:02:18;96864.13;;;2.31;100.00
23229;BME280;11783;50.350;6.576;2023-01-31T11:04:48;96855.34;;;2.24;100.00
23229;BME280;11783;50.350;6.576;2023-01-31T11:07:15;96858.59;;;2.26;100.00
23229;BME280;11783;50.350;6.576;2023-01-31T11:09:46;96860.84;;;2.29;100.00
23229;BME280;11783;50.350;6.576;2023-01-31T11:12:12;96857.06;;;2.32;100.00
23229;BME280;11783;50.350;6.576;2023-01-31T11:14:38;96844.75;;;2.32;100.00
23229;BME280;11783;50.350;6.576;2023-01-31T11:17:21;96836.91;;;2.32;100.00
23229;BME280;11783;50.350;6.576;2023-01-31T11:19:50;96849.00;;;2.33;100.00
23229;BME280;11783;50.350;6.576;2023-01-31T11:22:35;96825.22;;;2.35;100.00
23229;BME280;11783;50.350;6.576;2023-01-31T11:25:03;96820.56;;;2.45;100.00
23229;BME280;11783;50.350;6.576;2023-01-31T11:27:39;96800.66;;;2.51;100.00
23229;BME280;11783;50.350;6.576;2023-01-31T11:30:20;96803.38;;;2.42;100.00
23229;BME280;11783;50.350;6.576;2023-01-31T11:32:46;96772.16;;;2.48;100.00
23229;BME280;11783;50.350;6.576;2023-01-31T11:38:18;96802.38;;;2.43;100.00
23229;BME280;11783;50.350;6.576;2023-01-31T11:40:52;96802.03;;;2.47;100.00
23229;BME280;11783;50.350;6.576;2023-01-31T11:46:01;96790.72;;;2.46;100.00
23229;BME280;11783;50.350;6.576;2023-01-31T11:51:01;96777.97;;;2.58;100.00
23229;BME280;11783;50.350;6.576;2023-01-31T11:56:14;96770.63;;;2.53;100.00
23229;BME280;11783;50.350;6.576;2023-01-31T11:58:42;96765.94;;;2.63;100.00
23229;BME280;11783;50.350;6.576;2023-01-31T12:03:50;96765.66;;;2.73;100.00
23229;BME280;11783;50.350;6.576;2023-01-31T12:06:38;96765.13;;;2.78;100.00
23229;BME280;11783;50.350;6.576;2023-01-31T12:09:18;96754.72;;;2.84;100.00
23229;BME280;11783;50.350;6.576;2023-01-31T12:11:55;96747.31;;;2.88;100.00
23229;BME280;11783;50.350;6.576;2023-01-31T12:14:22;96753.72;;;2.85;100.00
23229;BME280;11783;50.350;6.576;2023-01-31T12:16:53;96741.25;;;2.87;100.00
23229;BME280;11783;50.350;6.576;2023-01-31T12:26:54;96718.50;;;2.94;100.00
23229;BME280;11783;50.350;6.576;2023-01-31T12:32:37;96731.72;;;3.01;100.00
23229;BME280;11783;50.350;6.576;2023-01-31T12:35:34;96725.72;;;3.07;100.00
23229;BME280;11783;50.350;6.576;2023-01-31T12:52:49;96679.84;;;3.03;100.00
23229;BME280;11783;50.350;6.576;2023-01-31T12:56:04;96688.81;;;2.94;100.00
23229;BME280;11783;50.350;6.576;2023-01-31T12:58:40;96673.16;;;3.00;100.00
23229;BME280;11783;50.350;6.576;2023-01-31T13:01:26;96679.72;;;3.11;100.00
23229;BME280;11783;50.350;6.576;2023-01-31T13:06:35;96669.22;;;3.11;100.00
23229;BME280;11783;50.350;6.576;2023-01-31T13:09:22;96676.09;;;3.12;100.00
23229;BME280;11783;50.350;6.576;2023-01-31T13:14:22;96677.00;;;3.19;100.00
23229;BME280;11783;50.350;6.576;2023-01-31T13:16:52;96665.59;;;3.12;100.00
23229;BME280;11783;50.350;6.576;2023-01-31T13:22:04;96692.47;;;3.14;100.00
23229;BME280;11783;50.350;6.576;2023-01-31T13:24:36;96697.91;;;3.13;100.00
23229;BME280;11783;50.350;6.576;2023-01-31T13:29:48;96703.66;;;3.01;100.00
23229;BME280;11783;50.350;6.576;2023-01-31T13:32:27;96716.41;;;3.04;100.00
23229;BME280;11783;50.350;6.576;2023-01-31T13:37:32;96699.75;;;2.97;100.00
23229;BME280;11783;50.350;6.576;2023-01-31T13:40:05;96690.53;;;3.01;100.00
23229;BME280;11783;50.350;6.576;2023-01-31T13:42:35;96694.41;;;3.06;100.00
23229;BME280;11783;50.350;6.576;2023-01-31T13:45:05;96684.47;;;3.01;100.00
23229;BME280;11783;50.350;6.576;2023-01-31T13:47:51;96698.22;;;3.03;100.00
23229;BME280;11783;50.350;6.576;2023-01-31T13:50:38;96699.13;;;2.95;100.00
23229;BME280;11783;50.350;6.576;2023-01-31T13:53:13;96691.72;;;2.99;100.00
23229;BME280;11783;50.350;6.576;2023-01-31T13:55:45;96690.53;;;3.01;100.00
23229;BME280;11783;50.350;6.576;2023-01-31T13:58:24;96698.66;;;3.07;100.00
23229;BME280;11783;50.350;6.576;2023-01-31T14:01:03;96690.91;;;2.98;100.00
23229;BME280;11783;50.350;6.576;2023-01-31T14:09:35;96695.97;;;3.00;100.00
23229;BME280;11783;50.350;6.576;2023-01-31T14:14:51;96691.97;;;3.04;100.00
23229;BME280;11783;50.350;6.576;2023-01-31T14:22:20;96708.53;;;3.04;100.00
23229;BME280;11783;50.350;6.576;2023-01-31T14:29:44;96697.84;;;3.06;100.00
23229;BME280;11783;50.350;6.576;2023-01-31T14:38:09;96709.09;;;3.00;100.00
23229;BME280;11783;50.350;6.576;2023-01-31T14:40:51;96716.78;;;3.01;100.00
23229;BME280;11783;50.350;6.576;2023-01-31T14:46:44;96714.16;;;3.01;100.00
23229;BME280;11783;50.350;6.576;2023-01-31T14:57:30;96707.91;;;3.02;100.00
23229;BME280;11783;50.350;6.576;2023-01-31T15:00:14;96721.03;;;3.02;100.00
23229;BME280;11783;50.350;6.576;2023-01-31T15:05:12;96713.84;;;3.11;100.00
23229;BME280;11783;50.350;6.576;2023-01-31T15:08:43;96723.16;;;3.14;100.00
23229;BME280;11783;50.350;6.576;2023-01-31T15:12:03;96730.44;;;3.12;100.00
23229;BME280;11783;50.350;6.576;2023-01-31T15:13:57;96722.53;;;3.12;100.00
23229;BME280;11783;50.350;6.576;2023-01-31T15:21:26;96728.81;;;3.11;100.00
23229;BME280;11783;50.350;6.576;2023-01-31T15:23:54;96722.91;;;3.09;100.00
23229;BME280;11783;50.350;6.576;2023-01-31T15:26:21;96714.84;;;3.10;100.00
23229;BME280;11783;50.350;6.576;2023-01-31T15:28:48;96715.28;;;3.14;100.00
23229;BME280;11783;50.350;6.576;2023-01-31T15:31:22;96709.22;;;3.13;100.00
23229;BME280;11783;50.350;6.576;2023-01-31T15:33:52;96720.19;;;3.17;100.00
23229;BME280;11783;50.350;6.576;2023-01-31T15:36:26;96718.03;;;3.20;100.00
23229;BME280;11783;50.350;6.576;2023-01-31T15:43:48;96720.47;;;3.22;100.00
23229;BME280;11783;50.350;6.576;2023-01-31T15:46:32;96714.19;;;3.23;100.00
23229;BME280;11783;50.350;6.576;2023-01-31T15:48:59;96723.78;;;3.30;100.00
23229;BME280;11783;50.350;6.576;2023-01-31T15:51:25;96727.84;;;3.33;100.00